createdAt,value
2022-09-20T00:01:24.016Z,86.83
2022-09-20T00:03:55.296Z,86.64
2022-09-20T00:06:23.716Z,86.62
2022-09-20T00:08:50.410Z,86.90
2022-09-20T00:11:24.966Z,86.62
2022-09-20T00:13:53.107Z,86.65
2022-09-20T00:16:25.433Z,86.47
2022-09-20T00:18:53.119Z,86.28
2022-09-20T00:21:21.503Z,85.89
2022-09-20T00:23:48.104Z,86.03
2022-09-20T00:26:14.846Z,85.99
2022-09-20T00:28:41.845Z,86.19
2022-09-20T00:31:08.464Z,86.56
2022-09-20T00:33:53.646Z,86.12
2022-09-20T00:36:20.240Z,85.80
2022-09-20T00:38:46.866Z,85.69
2022-09-20T00:41:13.525Z,86.06
2022-09-20T00:43:41.809Z,86.17
2022-09-20T00:46:36.615Z,86.15
2022-09-20T00:49:26.234Z,86.34
2022-09-20T00:51:55.842Z,85.59
2022-09-20T00:54:22.508Z,85.61
2022-09-20T00:56:49.250Z,85.69
2022-09-20T00:59:21.920Z,85.90
2022-09-20T01:02:15.426Z,85.90
2022-09-20T01:04:42.604Z,85.77
2022-09-20T01:07:09.800Z,85.52
2022-09-20T01:09:36.454Z,84.83
2022-09-20T01:12:08.447Z,84.87
2022-09-20T01:14:35.014Z,85.19
2022-09-20T01:17:04.119Z,85.28
2022-09-20T01:19:42.785Z,85.09
2022-09-20T01:22:16.152Z,85.31
2022-09-20T01:25:03.316Z,85.66
2022-09-20T01:27:33.514Z,86.09
2022-09-20T01:30:03.858Z,85.56
2022-09-20T01:32:53.631Z,85.80
2022-09-20T01:35:21.383Z,85.13
2022-09-20T01:38:11.505Z,85.53
2022-09-20T01:40:59.232Z,85.64
2022-09-20T01:43:47.373Z,86.37
2022-09-20T01:46:32.525Z,86.47
2022-09-20T01:49:28.496Z,86.51
2022-09-20T01:52:16.665Z,86.50
2022-09-20T01:55:15.957Z,86.22
2022-09-20T01:58:35.025Z,86.01
2022-09-20T02:01:32.422Z,86.33
2022-09-20T02:04:28.940Z,86.30
2022-09-20T02:07:01.778Z,85.81
2022-09-20T02:09:46.942Z,85.67
2022-09-20T02:12:43.894Z,85.51
2022-09-20T02:16:07.891Z,86.00
2022-09-20T02:18:43.168Z,86.20
2022-09-20T02:21:16.845Z,86.04
2022-09-20T02:24:10.644Z,86.28
2022-09-20T02:27:02.582Z,86.27
2022-09-20T02:29:47.863Z,86.29
2022-09-20T02:32:51.947Z,86.21
2022-09-20T02:35:39.317Z,86.43
2022-09-20T02:38:43.195Z,86.11
2022-09-20T02:41:09.652Z,86.08
2022-09-20T02:43:51.549Z,86.23
2022-09-20T02:46:26.322Z,86.31
2022-09-20T02:49:08.789Z,86.90
2022-09-20T02:51:43.955Z,86.46
2022-09-20T02:54:13.862Z,86.03
2022-09-20T02:57:10.801Z,85.99
2022-09-20T02:59:49.400Z,86.02
2022-09-20T03:02:45.396Z,86.51
2022-09-20T03:05:36.316Z,86.27
2022-09-20T03:08:32.762Z,86.23
2022-09-20T03:11:18.062Z,86.48
2022-09-20T03:13:53.721Z,86.06
2022-09-20T03:16:47.584Z,86.38
2022-09-20T03:19:34.047Z,86.11
2022-09-20T03:22:00.994Z,86.00
2022-09-20T03:24:52.555Z,86.36
2022-09-20T03:27:41.543Z,85.73
2022-09-20T03:30:40.334Z,85.59
2022-09-20T03:33:18.458Z,85.63
2022-09-20T03:36:04.177Z,85.89
2022-09-20T03:38:55.225Z,85.52
2022-09-20T03:41:34.248Z,85.93
2022-09-20T03:44:34.500Z,85.44
2022-09-20T03:47:08.946Z,85.31
2022-09-20T03:50:09.886Z,85.80
2022-09-20T03:53:00.872Z,85.81
2022-09-20T03:56:00.893Z,86.12
2022-09-20T03:58:46.021Z,86.17
2022-09-20T04:01:31.083Z,85.58
2022-09-20T04:04:09.403Z,85.98
2022-09-20T04:06:35.881Z,86.05
2022-09-20T04:09:14.712Z,86.37
2022-09-20T04:11:46.330Z,85.93
2022-09-20T04:14:34.656Z,86.20
2022-09-20T04:17:06.328Z,86.51
2022-09-20T04:19:46.256Z,86.53
2022-09-20T04:22:12.900Z,87.04
2022-09-20T04:24:56.632Z,86.73
2022-09-20T04:27:29.398Z,86.54
2022-09-20T04:30:15.041Z,86.20
2022-09-20T04:32:44.599Z,86.27
2022-09-20T04:35:44.406Z,86.06
2022-09-20T04:38:13.197Z,86.01
2022-09-20T04:41:12.098Z,85.91
2022-09-20T04:44:21.906Z,86.75
2022-09-20T04:47:08.250Z,86.49
2022-09-20T04:49:59.496Z,86.47
2022-09-20T04:52:41.306Z,86.41
2022-09-20T04:55:26.962Z,86.64
2022-09-20T04:58:19.428Z,87.17
2022-09-20T05:01:07.054Z,86.74
2022-09-20T05:03:45.665Z,86.83
2022-09-20T05:06:36.853Z,87.42
2022-09-20T05:09:13.731Z,87.06
2022-09-20T05:12:02.495Z,86.76
2022-09-20T05:14:40.989Z,86.81
2022-09-20T05:17:14.800Z,87.30
2022-09-20T05:20:02.706Z,86.68
2022-09-20T05:22:53.820Z,87.63
2022-09-20T05:25:48.292Z,86.88
2022-09-20T05:28:28.718Z,87.17
2022-09-20T05:31:28.623Z,86.76
2022-09-20T05:34:45.976Z,87.14
2022-09-20T05:37:22.577Z,86.96
2022-09-20T05:40:18.270Z,87.01
2022-09-20T05:43:07.497Z,87.36
2022-09-20T05:45:40.072Z,87.42
2022-09-20T05:48:15.055Z,87.82
2022-09-20T05:51:20.598Z,87.84
2022-09-20T05:53:49.817Z,87.81
2022-09-20T05:56:34.414Z,88.16
2022-09-20T05:59:16.870Z,88.69
2022-09-20T06:02:01.625Z,88.22
2022-09-20T06:05:15.005Z,88.14
2022-09-20T06:08:03.834Z,88.19
2022-09-20T06:10:54.662Z,87.88
2022-09-20T06:13:36.398Z,88.18
2022-09-20T06:16:07.888Z,87.78
2022-09-20T06:19:03.170Z,87.33
2022-09-20T06:21:55.395Z,87.85
2022-09-20T06:24:44.760Z,88.40
2022-09-20T06:27:14.468Z,88.13
2022-09-20T06:29:43.742Z,87.83
2022-09-20T06:32:10.366Z,87.75
2022-09-20T06:34:36.974Z,87.30
2022-09-20T06:37:34.276Z,87.08
2022-09-20T06:40:46.961Z,86.64
2022-09-20T06:43:14.598Z,86.10
2022-09-20T06:45:42.634Z,85.99
2022-09-20T06:48:13.148Z,86.38
2022-09-20T06:50:40.037Z,86.00
2022-09-20T06:53:07.149Z,86.53
2022-09-20T06:55:37.506Z,87.12
2022-09-20T06:58:04.214Z,86.58
2022-09-20T07:00:30.868Z,86.25
2022-09-20T07:02:57.443Z,86.32
2022-09-20T07:05:26.609Z,85.94
2022-09-20T07:07:57.682Z,85.87
2022-09-20T07:10:25.438Z,85.41
2022-09-20T07:12:52.006Z,85.60
2022-09-20T07:15:22.867Z,85.37
2022-09-20T07:17:49.471Z,85.30
2022-09-20T07:20:47.124Z,85.24
2022-09-20T07:23:15.780Z,85.47
2022-09-20T07:25:42.339Z,86.19
2022-09-20T07:28:08.901Z,85.92
2022-09-20T07:30:35.463Z,85.45
2022-09-20T07:33:02.696Z,84.95
2022-09-20T07:35:29.941Z,84.48
2022-09-20T07:37:57.892Z,83.76
2022-09-20T07:40:26.885Z,83.33
2022-09-20T07:42:56.219Z,82.77
2022-09-20T07:45:23.961Z,82.99
2022-09-20T07:47:50.592Z,82.62
2022-09-20T07:50:17.322Z,83.71
2022-09-20T07:52:43.902Z,83.55
2022-09-20T07:55:10.518Z,83.30
2022-09-20T07:57:37.784Z,83.44
2022-09-20T08:00:07.958Z,83.58
2022-09-20T08:02:34.580Z,83.81
2022-09-20T08:05:01.331Z,83.27
2022-09-20T08:07:28.892Z,83.86
2022-09-20T08:09:55.492Z,84.27
2022-09-20T08:15:11.870Z,84.69
2022-09-20T08:17:40.389Z,85.06
2022-09-20T08:20:07.851Z,84.81
2022-09-20T08:22:34.886Z,84.28
2022-09-20T08:25:01.450Z,84.33
2022-09-20T08:27:28.135Z,84.20
2022-09-20T08:29:57.311Z,84.31
2022-09-20T08:32:23.874Z,83.43
2022-09-20T08:34:50.431Z,83.23
2022-09-20T08:37:17.155Z,82.33
2022-09-20T08:39:59.537Z,81.77
2022-09-20T08:42:37.847Z,81.26
2022-09-20T08:45:11.378Z,79.26
2022-09-20T08:47:58.504Z,78.56
2022-09-20T08:50:25.826Z,77.87
2022-09-20T08:53:00.146Z,78.36
2022-09-20T08:55:36.486Z,77.06
2022-09-20T08:58:08.193Z,77.18
2022-09-20T09:00:35.931Z,77.46
2022-09-20T09:03:07.454Z,77.87
2022-09-20T09:05:39.088Z,77.41
2022-09-20T09:08:17.274Z,76.23
2022-09-20T09:10:54.232Z,76.58
2022-09-20T09:13:40.028Z,77.01
2022-09-20T09:16:13.177Z,76.82
2022-09-20T09:18:41.397Z,77.00
2022-09-20T09:21:10.457Z,77.44
2022-09-20T09:24:31.652Z,77.14
2022-09-20T09:27:07.650Z,76.28
2022-09-20T09:29:35.054Z,76.01
2022-09-20T09:32:19.318Z,76.15
2022-09-20T09:34:45.957Z,77.10
2022-09-20T09:37:27.813Z,77.76
2022-09-20T09:40:16.784Z,79.01
2022-09-20T09:42:57.604Z,76.36
2022-09-20T09:45:40.957Z,75.39
2022-09-20T09:48:27.890Z,72.67
2022-09-20T09:51:09.737Z,72.45
2022-09-20T09:53:36.724Z,71.71
2022-09-20T09:56:14.314Z,72.97
2022-09-20T09:59:02.221Z,73.92
2022-09-20T10:02:06.636Z,71.87
2022-09-20T10:04:37.448Z,67.96
2022-09-20T10:07:14.266Z,65.03
2022-09-20T10:09:46.962Z,65.89
2022-09-20T10:12:20.786Z,67.15
2022-09-20T10:14:56.931Z,69.75
2022-09-20T10:17:51.057Z,70.50
2022-09-20T10:20:28.201Z,72.16
2022-09-20T10:24:01.465Z,72.92
2022-09-20T10:26:44.192Z,74.47
2022-09-20T10:29:15.811Z,74.57
2022-09-20T10:31:54.983Z,75.52
2022-09-20T10:34:30.506Z,76.54
2022-09-20T10:36:58.316Z,77.60
2022-09-20T10:39:33.875Z,77.85
2022-09-20T10:42:40.910Z,78.21
2022-09-20T10:45:55.974Z,78.57
2022-09-20T10:48:31.814Z,79.00
2022-09-20T10:51:21.466Z,79.21
2022-09-20T10:54:09.848Z,79.45
2022-09-20T10:56:37.802Z,80.08
2022-09-20T10:59:40.062Z,81.00
2022-09-20T11:02:31.338Z,82.73
2022-09-20T11:05:27.281Z,81.30
2022-09-20T11:08:10.541Z,80.92
2022-09-20T11:10:43.052Z,79.18
2022-09-20T11:13:29.843Z,78.59
2022-09-20T11:16:10.332Z,74.42
2022-09-20T11:18:41.524Z,76.32
2022-09-20T11:21:23.251Z,75.36
2022-09-20T11:23:55.189Z,77.12
2022-09-20T11:26:27.535Z,76.35
2022-09-20T11:28:56.144Z,76.83
2022-09-20T11:31:26.935Z,77.16
2022-09-20T11:34:03.569Z,77.31
2022-09-20T11:36:58.977Z,77.81
2022-09-20T11:39:40.275Z,77.50
2022-09-20T11:42:06.920Z,77.21
2022-09-20T11:44:33.528Z,76.86
2022-09-20T11:47:52.872Z,76.76
2022-09-20T11:50:36.314Z,77.67
2022-09-20T11:53:27.573Z,77.00
2022-09-20T11:56:06.321Z,74.97
2022-09-20T11:58:46.621Z,76.43
2022-09-20T12:01:13.286Z,76.51
2022-09-20T12:03:40.164Z,77.11
2022-09-20T12:06:08.417Z,77.15
2022-09-20T12:08:39.782Z,75.91
2022-09-20T12:11:13.769Z,74.54
2022-09-20T12:13:41.883Z,74.71
2022-09-20T12:16:16.048Z,74.62
2022-09-20T12:18:54.719Z,75.92
2022-09-20T12:21:21.872Z,75.42
2022-09-20T12:23:57.537Z,77.00
2022-09-20T12:26:27.092Z,76.18
2022-09-20T12:28:54.251Z,75.84
2022-09-20T12:31:31.780Z,75.96
2022-09-20T12:33:59.419Z,74.93
2022-09-20T12:36:36.398Z,74.61
2022-09-20T12:39:12.044Z,74.61
2022-09-20T12:42:01.407Z,74.89
2022-09-20T12:44:38.018Z,75.27
2022-09-20T12:47:10.594Z,75.82
2022-09-20T12:50:05.885Z,75.55
2022-09-20T12:52:50.707Z,75.13
2022-09-20T12:55:30.952Z,75.52
2022-09-20T12:58:02.208Z,75.03
2022-09-20T13:00:34.495Z,74.05
2022-09-20T13:03:01.157Z,74.63
2022-09-20T13:05:32.210Z,74.14
2022-09-20T13:08:22.426Z,74.99
2022-09-20T13:11:02.231Z,75.04
2022-09-20T13:13:32.120Z,74.39
2022-09-20T13:15:58.931Z,74.16
2022-09-20T13:18:26.572Z,74.72
2022-09-20T13:20:54.043Z,74.83
2022-09-20T13:23:24.879Z,75.27
2022-09-20T13:25:51.539Z,75.42
2022-09-20T13:28:49.669Z,75.68
2022-09-20T13:31:25.941Z,75.06
2022-09-20T13:33:52.631Z,75.12
2022-09-20T13:36:27.634Z,75.19
2022-09-20T13:38:55.406Z,75.08
2022-09-20T13:41:22.978Z,75.45
2022-09-20T13:43:50.155Z,74.42
2022-09-20T13:46:24.594Z,74.51
2022-09-20T13:49:22.197Z,76.01
2022-09-20T13:51:49.141Z,75.42
2022-09-20T13:54:28.941Z,74.91
2022-09-20T13:56:56.859Z,74.25
2022-09-20T13:59:23.642Z,74.69
2022-09-20T14:01:51.960Z,74.30
2022-09-20T14:04:22.867Z,74.31
2022-09-20T14:06:52.848Z,74.78
2022-09-20T14:09:28.783Z,75.24
2022-09-20T14:11:56.080Z,75.70
2022-09-20T14:14:23.376Z,75.26
2022-09-20T14:16:49.933Z,75.51
2022-09-20T14:19:18.548Z,76.25
2022-09-20T14:21:45.112Z,76.42
2022-09-20T14:24:14.637Z,77.53
2022-09-20T14:26:42.255Z,77.46
2022-09-20T14:29:39.951Z,77.72
2022-09-20T14:32:17.662Z,78.32
2022-09-20T14:34:51.621Z,78.21
2022-09-20T14:37:32.551Z,78.71
2022-09-20T14:40:16.056Z,79.58
2022-09-20T14:42:44.070Z,79.06
2022-09-20T14:45:40.331Z,80.07
2022-09-20T14:48:26.954Z,80.42
2022-09-20T14:51:26.103Z,81.07
2022-09-20T14:54:13.956Z,81.23
2022-09-20T14:56:49.371Z,81.57
2022-09-20T14:59:18.994Z,81.54
2022-09-20T15:02:03.534Z,81.22
2022-09-20T15:04:31.618Z,81.24
2022-09-20T15:07:01.435Z,81.87
2022-09-20T15:09:28.009Z,83.82
2022-09-20T15:12:01.352Z,83.46
2022-09-20T15:14:27.970Z,82.90
2022-09-20T15:16:54.574Z,82.08
2022-09-20T15:19:21.180Z,81.70
2022-09-20T15:21:51.846Z,81.46
2022-09-20T15:24:19.072Z,80.00
2022-09-20T15:26:45.722Z,77.96
2022-09-20T15:29:17.221Z,77.87
2022-09-20T15:31:45.027Z,78.29
2022-09-20T15:34:12.963Z,76.78
2022-09-20T15:36:40.510Z,76.61
2022-09-20T15:39:07.431Z,76.31
2022-09-20T15:41:34.711Z,75.46
2022-09-20T15:44:02.661Z,75.75
2022-09-20T15:46:29.315Z,75.72
2022-09-20T15:48:56.443Z,75.50
2022-09-20T15:51:23.121Z,76.36
2022-09-20T15:53:58.452Z,76.76
2022-09-20T15:56:27.482Z,76.93
2022-09-20T15:59:01.517Z,77.57
2022-09-20T16:01:41.863Z,77.37
2022-09-20T16:04:08.783Z,77.58
2022-09-20T16:06:35.581Z,77.81
2022-09-20T16:09:02.406Z,77.87
2022-09-20T16:11:29.103Z,78.12
2022-09-20T16:13:56.809Z,78.28
2022-09-20T16:16:23.717Z,78.90
2022-09-20T16:19:09.007Z,78.65
2022-09-20T16:21:36.665Z,79.52
2022-09-20T16:24:03.403Z,78.95
2022-09-20T16:26:31.679Z,78.93
2022-09-20T16:28:58.419Z,79.36
2022-09-20T16:31:28.624Z,79.46
2022-09-20T16:33:55.251Z,79.84
2022-09-20T16:36:27.303Z,80.04
2022-09-20T16:38:55.925Z,79.99
2022-09-20T16:41:23.614Z,80.16
2022-09-20T16:43:52.240Z,80.33
2022-09-20T16:46:22.479Z,80.26
2022-09-20T16:48:53.761Z,80.27
2022-09-20T16:51:22.157Z,80.19
2022-09-20T16:53:48.922Z,80.64
2022-09-20T16:56:34.637Z,81.14
2022-09-20T16:59:02.044Z,81.44
2022-09-20T17:01:28.894Z,80.84
2022-09-20T17:03:55.556Z,80.62
2022-09-20T17:06:22.188Z,80.46
2022-09-20T17:08:54.562Z,79.61
2022-09-20T17:11:26.434Z,79.93
2022-09-20T17:13:53.863Z,79.96
2022-09-20T17:16:25.609Z,80.22
2022-09-20T17:18:58.203Z,80.78
2022-09-20T17:21:25.257Z,81.34
2022-09-20T17:23:55.231Z,81.63
2022-09-20T17:26:32.053Z,81.79
2022-09-20T17:28:59.245Z,82.27
2022-09-20T17:31:34.114Z,82.19
2022-09-20T17:34:02.238Z,82.33
2022-09-20T17:36:30.162Z,82.53
2022-09-20T17:39:02.970Z,83.07
2022-09-20T17:41:30.367Z,82.76
2022-09-20T17:43:58.689Z,83.27
2022-09-20T17:46:26.425Z,83.39
2022-09-20T17:48:55.616Z,83.10
2022-09-20T17:51:29.870Z,83.45
2022-09-20T17:53:56.503Z,82.87
2022-09-20T17:56:28.686Z,82.93
2022-09-20T17:58:56.885Z,82.68
2022-09-20T18:01:23.757Z,83.25
2022-09-20T18:03:51.504Z,82.88
2022-09-20T18:06:29.651Z,82.85
2022-09-20T18:09:03.641Z,82.38
2022-09-20T18:11:35.170Z,82.82
2022-09-20T18:14:02.294Z,82.54
2022-09-20T18:16:30.841Z,82.16
2022-09-20T18:18:59.345Z,82.62
2022-09-20T18:21:26.832Z,82.53
2022-09-20T18:23:53.452Z,82.95
2022-09-20T18:26:24.439Z,83.27
2022-09-20T18:29:18.299Z,83.54
2022-09-20T18:31:49.801Z,83.24
2022-09-20T18:34:23.976Z,83.57
2022-09-20T18:36:54.781Z,84.03
2022-09-20T18:39:28.507Z,83.57
2022-09-20T18:41:55.241Z,83.93
2022-09-20T18:44:22.305Z,84.43
2022-09-20T18:46:49.045Z,84.32
2022-09-20T18:49:17.073Z,84.46
2022-09-20T18:51:44.107Z,84.23
2022-09-20T18:54:11.115Z,84.83
2022-09-20T18:56:41.876Z,84.82
2022-09-20T18:59:15.672Z,84.49
2022-09-20T19:01:48.263Z,84.66
2022-09-20T19:04:39.650Z,84.90
2022-09-20T19:07:12.241Z,84.89
2022-09-20T19:09:56.957Z,84.80
2022-09-20T19:12:26.189Z,85.33
2022-09-20T19:15:30.530Z,84.94
2022-09-20T19:18:22.930Z,84.67
2022-09-20T19:21:14.971Z,84.86
2022-09-20T19:23:45.644Z,84.58
2022-09-20T19:26:29.084Z,84.44
2022-09-20T19:29:00.155Z,84.67
2022-09-20T19:31:31.878Z,84.64
2022-09-20T19:34:00.409Z,84.98
2022-09-20T19:36:54.827Z,84.78
2022-09-20T19:39:33.290Z,84.79
2022-09-20T19:42:36.301Z,84.86
2022-09-20T19:45:06.958Z,84.59
2022-09-20T19:47:45.751Z,85.03
2022-09-20T19:50:38.904Z,85.05
2022-09-20T19:53:05.802Z,84.66
2022-09-20T19:55:33.019Z,84.61
2022-09-20T19:57:59.946Z,84.16
2022-09-20T20:00:27.908Z,84.05
2022-09-20T20:02:55.385Z,83.92
2022-09-20T20:05:25.735Z,83.58
2022-09-20T20:08:14.031Z,83.42
2022-09-20T20:10:57.209Z,83.50
2022-09-20T20:14:07.138Z,83.45
2022-09-20T20:16:54.958Z,83.49
2022-09-20T20:19:42.887Z,84.26
2022-09-20T20:22:37.695Z,84.56
2022-09-20T20:25:04.745Z,84.63
2022-09-20T20:27:32.566Z,84.79
2022-09-20T20:29:59.141Z,84.98
2022-09-20T20:32:25.917Z,84.98
2022-09-20T20:34:52.472Z,84.69
2022-09-20T20:37:19.066Z,85.07
2022-09-20T20:39:45.859Z,85.45
2022-09-20T20:42:12.829Z,85.46
2022-09-20T20:44:40.091Z,85.68
2022-09-20T20:47:06.871Z,85.75
2022-09-20T20:49:33.414Z,85.43
2022-09-20T20:52:04.748Z,85.70
2022-09-20T20:54:32.277Z,85.64
2022-09-20T20:56:59.480Z,85.66
2022-09-20T20:59:26.448Z,85.75
2022-09-20T21:01:53.090Z,85.71
2022-09-20T21:04:20.033Z,85.48
2022-09-20T21:06:46.708Z,85.66
2022-09-20T21:09:13.567Z,85.65
2022-09-20T21:11:44.227Z,86.03
2022-09-20T21:14:11.960Z,85.85
2022-09-20T21:16:42.512Z,85.71
2022-09-20T21:19:10.304Z,85.69
2022-09-20T21:21:38.767Z,85.81
2022-09-20T21:24:09.567Z,85.87
2022-09-20T21:26:37.030Z,85.98
2022-09-20T21:29:08.125Z,85.85
2022-09-20T21:31:36.331Z,85.94
2022-09-20T21:34:09.438Z,86.00
2022-09-20T21:36:38.009Z,86.20
2022-09-20T21:39:05.178Z,86.10
2022-09-20T21:41:32.986Z,86.59
2022-09-20T21:44:02.236Z,86.63
2022-09-20T21:46:37.163Z,85.98
2022-09-20T21:49:04.486Z,86.20
2022-09-20T21:51:31.318Z,86.09
2022-09-20T21:53:59.459Z,86.02
2022-09-20T21:56:27.546Z,86.54
2022-09-20T21:58:54.169Z,86.61
2022-09-20T22:01:28.082Z,86.91
2022-09-20T22:03:57.449Z,87.15
2022-09-20T22:06:25.973Z,87.16
2022-09-20T22:08:53.326Z,87.93
2022-09-20T22:11:20.865Z,87.87
2022-09-20T22:13:48.650Z,87.72
2022-09-20T22:16:17.481Z,87.99
2022-09-20T22:18:44.143Z,87.70
2022-09-20T22:21:19.007Z,87.52
2022-09-20T22:23:47.999Z,87.82
2022-09-20T22:26:24.590Z,87.71
2022-09-20T22:28:51.781Z,87.80
2022-09-20T22:31:20.242Z,87.91
2022-09-20T22:33:48.389Z,87.44
2022-09-20T22:36:16.610Z,88.24
2022-09-20T22:38:43.664Z,88.23
2022-09-20T22:41:10.499Z,88.86
2022-09-20T22:43:37.374Z,89.07
2022-09-20T22:46:09.054Z,88.92
2022-09-20T22:48:35.880Z,88.88
2022-09-20T22:51:19.289Z,89.07
2022-09-20T22:53:46.299Z,89.54
2022-09-20T22:56:17.774Z,89.11
2022-09-20T22:58:46.066Z,89.07
2022-09-20T23:01:23.025Z,89.67
2022-09-20T23:04:00.304Z,89.66
2022-09-20T23:06:28.635Z,89.79
2022-09-20T23:08:59.708Z,89.57
2022-09-20T23:11:26.607Z,89.78
2022-09-20T23:13:55.002Z,89.91
2022-09-20T23:16:23.450Z,89.53
2022-09-20T23:18:50.791Z,90.15
2022-09-20T23:21:17.492Z,89.64
2022-09-20T23:23:44.750Z,89.87
2022-09-20T23:26:12.899Z,89.83
2022-09-20T23:28:41.154Z,89.99
2022-09-20T23:31:09.388Z,89.54
2022-09-20T23:33:36.029Z,89.16
2022-09-20T23:36:09.314Z,89.71
2022-09-20T23:38:38.940Z,89.41
2022-09-20T23:41:06.733Z,89.26
2022-09-20T23:43:33.937Z,89.24
2022-09-20T23:46:00.538Z,89.07
2022-09-20T23:48:27.157Z,89.11
2022-09-20T23:50:53.780Z,89.18
2022-09-20T23:53:20.459Z,88.75
2022-09-20T23:55:47.026Z,88.94
2022-09-20T23:58:13.731Z,88.89
